Time;durP1;ratioP1;P1;durP2;ratioP2;P2;SDS_P1;SDS_P2;PMS_P1;PMS_P2;Temp;Humidity;BMP_temperature;BMP_pressure;BME280_temperature;BME280_humidity;BME280_pressure;Samples;Min_cycle;Max_cycle;Signal;HPM_P1;HPM_P2
2023/11/22 00:02:15;;;;;;;18.27;8.75;;;;;;;;;;5052686;28;20021;-80
2023/11/22 00:04:40;;;;;;;20.75;8.07;;;;;;;;;;5051486;28;20032;-81
2023/11/22 00:07:06;;;;;;;21.67;9.30;;;;;;;;;;5051600;28;20112;-80
2023/11/22 00:09:32;;;;;;;17.30;8.32;;;;;;;;;;5051560;28;20021;-80
2023/11/22 00:11:59;;;;;;;18.27;8.00;;;;;;;;;;5051397;28;20087;-81
2023/11/22 00:14:25;;;;;;;16.33;6.93;;;;;;;;;;5051260;28;20024;-81
2023/11/22 00:16:51;;;;;;;19.98;8.45;;;;;;;;;;5051581;28;20098;-81
2023/11/22 00:19:18;;;;;;;23.05;9.85;;;;;;;;;;5052586;28;20056;-81
2023/11/22 00:21:43;;;;;;;17.70;8.90;;;;;;;;;;5051047;28;20450;-81
2023/11/22 00:24:08;;;;;;;18.77;8.77;;;;;;;;;;5052537;28;20052;-81
2023/11/22 00:26:33;;;;;;;21.17;8.75;;;;;;;;;;5051054;28;20032;-81
2023/11/22 00:28:59;;;;;;;23.35;9.18;;;;;;;;;;5051197;28;20048;-81
2023/11/22 00:31:24;;;;;;;18.52;7.88;;;;;;;;;;5051145;28;20108;-81
2023/11/22 00:33:49;;;;;;;17.20;8.52;;;;;;;;;;5051166;28;20451;-81
2023/11/22 00:36:16;;;;;;;21.70;9.65;;;;;;;;;;5050911;28;20048;-81
2023/11/22 00:38:41;;;;;;;20.65;9.05;;;;;;;;;;5052437;28;20067;-80
2023/11/22 00:41:07;;;;;;;19.67;8.88;;;;;;;;;;5050983;28;20477;-81
2023/11/22 00:43:32;;;;;;;22.10;9.35;;;;;;;;;;5050839;28;20028;-81
2023/11/22 00:45:57;;;;;;;22.67;9.15;;;;;;;;;;5050906;28;20021;-81
2023/11/22 00:48:23;;;;;;;16.65;7.85;;;;;;;;;;5050847;28;20362;-80
2023/11/22 00:50:48;;;;;;;18.23;8.68;;;;;;;;;;5050804;28;20017;-81
2023/11/22 00:53:14;;;;;;;17.85;8.25;;;;;;;;;;5050910;28;20021;-80
2023/11/22 00:55:39;;;;;;;23.85;9.45;;;;;;;;;;5047235;28;20025;-81
2023/11/22 00:58:04;;;;;;;23.98;8.85;;;;;;;;;;5041463;28;20017;-81
2023/11/22 01:00:30;;;;;;;18.52;8.88;;;;;;;;;;5051007;28;20009;-80
2023/11/22 01:02:55;;;;;;;20.73;9.45;;;;;;;;;;5050678;28;20067;-81
2023/11/22 01:05:22;;;;;;;21.90;8.68;;;;;;;;;;5050634;28;20010;-81
2023/11/22 01:07:47;;;;;;;16.35;8.43;;;;;;;;;;5050654;28;20389;-80
2023/11/22 01:10:12;;;;;;;22.23;9.35;;;;;;;;;;5050709;28;20025;-81
2023/11/22 01:12:38;;;;;;;18.48;8.68;;;;;;;;;;5050660;28;20024;-80
2023/11/22 01:15:05;;;;;;;21.70;8.60;;;;;;;;;;5050478;28;20021;-81
2023/11/22 01:17:31;;;;;;;21.10;8.65;;;;;;;;;;5084122;28;20036;-81
2023/11/22 01:19:56;;;;;;;20.05;8.43;;;;;;;;;;5047169;28;20442;-81
2023/11/22 01:22:21;;;;;;;17.20;8.05;;;;;;;;;;5050619;28;20100;-81
2023/11/22 01:24:47;;;;;;;16.75;7.65;;;;;;;;;;5050352;28;20113;-81
2023/11/22 01:27:12;;;;;;;21.65;8.40;;;;;;;;;;5050541;28;20514;-81
2023/11/22 01:29:37;;;;;;;15.02;6.70;;;;;;;;;;5036577;28;20446;-80
2023/11/22 01:32:03;;;;;;;17.52;6.55;;;;;;;;;;5050705;28;20456;-81
2023/11/22 01:34:29;;;;;;;22.35;8.60;;;;;;;;;;5050277;28;20407;-81
2023/11/22 01:36:54;;;;;;;18.10;8.25;;;;;;;;;;5083776;28;20017;-81
2023/11/22 01:39:20;;;;;;;16.88;8.27;;;;;;;;;;5050445;28;20017;-81
2023/11/22 01:41:46;;;;;;;18.45;7.82;;;;;;;;;;5083894;28;20495;-81
2023/11/22 01:44:12;;;;;;;18.58;9.40;;;;;;;;;;5050342;28;20024;-81
2023/11/22 01:46:37;;;;;;;20.63;9.27;;;;;;;;;;5050182;28;20055;-80
2023/11/22 01:49:02;;;;;;;16.60;7.63;;;;;;;;;;5050445;28;20021;-81
2023/11/22 01:51:27;;;;;;;20.50;8.32;;;;;;;;;;5050408;28;20031;-81
2023/11/22 01:53:54;;;;;;;16.63;7.78;;;;;;;;;;5051526;28;20024;-81
2023/11/22 01:56:23;;;;;;;17.58;8.48;;;;;;;;;;5049785;28;20021;-81
2023/11/22 01:58:49;;;;;;;17.88;8.48;;;;;;;;;;5050125;28;20421;-80
2023/11/22 02:01:14;;;;;;;19.38;9.07;;;;;;;;;;5050244;28;20015;-81
2023/11/22 02:03:39;;;;;;;22.17;9.07;;;;;;;;;;5051120;28;20104;-80
2023/11/22 02:06:05;;;;;;;17.45;8.85;;;;;;;;;;5053629;28;20013;-81
2023/11/22 02:08:30;;;;;;;19.65;9.20;;;;;;;;;;5055146;28;20056;-81
2023/11/22 02:10:59;;;;;;;20.70;8.73;;;;;;;;;;5053649;28;20024;-80
2023/11/22 02:13:26;;;;;;;18.45;9.35;;;;;;;;;;5053659;28;20448;-81
2023/11/22 02:15:52;;;;;;;17.48;8.35;;;;;;;;;;5054840;28;20019;-80
2023/11/22 02:18:17;;;;;;;21.50;9.15;;;;;;;;;;5087160;28;20013;-81
2023/11/22 02:20:42;;;;;;;26.08;8.60;;;;;;;;;;5058677;28;20039;-80
2023/11/22 02:23:11;;;;;;;17.30;8.20;;;;;;;;;;5073556;28;20012;-81
2023/11/22 02:25:37;;;;;;;20.35;8.35;;;;;;;;;;5069950;28;20356;-80
2023/11/22 02:28:02;;;;;;;17.38;8.77;;;;;;;;;;5054491;28;20040;-80
2023/11/22 02:30:28;;;;;;;25.02;9.60;;;;;;;;;;5053748;28;20017;-81
2023/11/22 02:32:53;;;;;;;15.68;7.63;;;;;;;;;;5063464;28;20058;-81
2023/11/22 02:35:19;;;;;;;23.35;9.18;;;;;;;;;;5060138;28;20013;-81
2023/11/22 02:37:47;;;;;;;19.05;8.38;;;;;;;;;;5073150;28;20373;-81
2023/11/22 02:40:12;;;;;;;20.27;8.93;;;;;;;;;;5059015;28;20105;-80
2023/11/22 02:42:38;;;;;;;20.58;9.35;;;;;;;;;;5074493;28;20050;-81
2023/11/22 02:45:05;;;;;;;22.23;9.27;;;;;;;;;;5061068;28;20056;-80
2023/11/22 02:47:30;;;;;;;17.15;7.85;;;;;;;;;;5071223;28;20043;-81
2023/11/22 02:49:55;;;;;;;21.25;8.85;;;;;;;;;;5074441;28;20162;-81
2023/11/22 02:52:21;;;;;;;21.95;8.95;;;;;;;;;;5074136;28;20028;-81
2023/11/22 02:54:47;;;;;;;20.70;8.65;;;;;;;;;;5070931;28;20037;-81
2023/11/22 02:57:12;;;;;;;19.05;8.80;;;;;;;;;;5072886;28;20048;-81
2023/11/22 02:59:41;;;;;;;19.38;8.98;;;;;;;;;;5052991;28;20028;-81
2023/11/22 03:02:07;;;;;;;19.73;8.95;;;;;;;;;;5066336;28;20078;-81
2023/11/22 03:04:32;;;;;;;17.40;8.65;;;;;;;;;;5054684;28;20029;-81
2023/11/22 03:06:57;;;;;;;18.40;8.73;;;;;;;;;;5052638;28;20028;-80
2023/11/22 03:09:23;;;;;;;18.40;8.93;;;;;;;;;;5054315;28;20111;-80
2023/11/22 03:11:48;;;;;;;20.17;9.47;;;;;;;;;;5074049;28;20026;-80
2023/11/22 03:14:13;;;;;;;25.33;8.93;;;;;;;;;;5068030;28;20108;-81
2023/11/22 03:16:39;;;;;;;24.40;9.23;;;;;;;;;;5085125;28;20021;-81
2023/11/22 03:19:04;;;;;;;25.37;8.30;;;;;;;;;;5065345;28;20108;-81
2023/11/22 03:21:29;;;;;;;20.10;9.13;;;;;;;;;;5059924;28;20470;-80
2023/11/22 03:23:55;;;;;;;24.43;9.60;;;;;;;;;;5065784;28;20025;-80
2023/11/22 03:26:20;;;;;;;19.00;8.47;;;;;;;;;;5067638;28;20024;-81
2023/11/22 03:28:45;;;;;;;20.03;8.47;;;;;;;;;;5065891;28;20029;-81
2023/11/22 03:31:10;;;;;;;22.03;8.77;;;;;;;;;;5064549;28;20027;-80
2023/11/22 03:33:35;;;;;;;17.53;8.00;;;;;;;;;;5067817;28;20020;-80
2023/11/22 03:36:02;;;;;;;22.07;8.10;;;;;;;;;;5095924;28;20024;-81
2023/11/22 03:38:27;;;;;;;18.83;8.80;;;;;;;;;;5057827;28;20052;-81
2023/11/22 03:40:53;;;;;;;18.83;8.73;;;;;;;;;;5065172;28;20017;-80
2023/11/22 03:43:18;;;;;;;23.03;9.43;;;;;;;;;;5051711;28;20017;-80
2023/11/22 03:45:43;;;;;;;23.70;9.20;;;;;;;;;;5057918;28;20025;-81
2023/11/22 03:48:09;;;;;;;19.40;8.53;;;;;;;;;;5072097;28;20070;-81
2023/11/22 03:50:34;;;;;;;21.17;9.30;;;;;;;;;;5073029;28;20070;-80
2023/11/22 03:52:59;;;;;;;27.00;11.25;;;;;;;;;;5071796;28;20025;-81
2023/11/22 03:55:24;;;;;;;30.40;12.20;;;;;;;;;;5055604;28;20165;-80
2023/11/22 03:57:49;;;;;;;25.98;10.18;;;;;;;;;;5051618;28;20044;-81
2023/11/22 04:00:15;;;;;;;22.67;9.05;;;;;;;;;;5065303;28;20075;-81
2023/11/22 04:02:41;;;;;;;25.02;10.05;;;;;;;;;;5072948;28;20418;-81
2023/11/22 04:05:07;;;;;;;28.58;11.27;;;;;;;;;;5059765;28;20017;-81
2023/11/22 04:07:32;;;;;;;28.70;10.90;;;;;;;;;;5070487;28;20103;-81
2023/11/22 04:09:57;;;;;;;30.83;12.20;;;;;;;;;;5072785;28;20483;-81
2023/11/22 04:12:23;;;;;;;32.50;13.15;;;;;;;;;;5071276;28;20036;-81
2023/11/22 04:14:48;;;;;;;28.48;12.13;;;;;;;;;;5060227;28;20033;-80
2023/11/22 04:17:14;;;;;;;25.02;11.60;;;;;;;;;;5072472;28;20391;-81
2023/11/22 04:19:39;;;;;;;31.17;12.73;;;;;;;;;;5051676;28;20025;-80
2023/11/22 04:22:04;;;;;;;31.80;13.15;;;;;;;;;;5051472;28;20108;-81
2023/11/22 04:24:29;;;;;;;27.20;12.60;;;;;;;;;;5054318;28;20036;-81
2023/11/22 04:26:54;;;;;;;29.77;12.38;;;;;;;;;;5061839;28;20075;-81
2023/11/22 04:29:20;;;;;;;31.63;12.20;;;;;;;;;;5054883;28;20075;-81
2023/11/22 04:31:45;;;;;;;25.50;11.88;;;;;;;;;;5053991;28;20380;-81
2023/11/22 04:34:10;;;;;;;24.08;10.27;;;;;;;;;;5063397;28;20419;-81
2023/11/22 04:36:36;;;;;;;28.83;12.05;;;;;;;;;;5067134;28;20020;-81
2023/11/22 04:39:01;;;;;;;31.92;12.73;;;;;;;;;;5064172;28;20005;-81
2023/11/22 04:41:26;;;;;;;31.95;12.55;;;;;;;;;;5050837;28;20029;-81
2023/11/22 04:43:52;;;;;;;32.38;13.63;;;;;;;;;;5055579;28;20013;-81
2023/11/22 04:46:17;;;;;;;33.03;12.88;;;;;;;;;;5071064;28;20040;-80
2023/11/22 04:48:44;;;;;;;31.25;13.75;;;;;;;;;;5070830;28;20074;-80
2023/11/22 04:51:10;;;;;;;38.55;14.20;;;;;;;;;;5064830;28;20020;-81
2023/11/22 04:53:35;;;;;;;32.63;12.57;;;;;;;;;;5065399;28;20126;-80
2023/11/22 04:56:05;;;;;;;35.58;14.38;;;;;;;;;;5057996;28;20047;-81
2023/11/22 04:58:30;;;;;;;35.33;13.80;;;;;;;;;;5057435;28;20017;-81
2023/11/22 05:00:56;;;;;;;37.33;15.13;;;;;;;;;;5061358;28;20016;-81
2023/11/22 05:03:21;;;;;;;28.30;11.32;;;;;;;;;;5059541;28;20017;-81
2023/11/22 05:05:47;;;;;;;37.72;14.65;;;;;;;;;;5067983;28;20132;-81
2023/11/22 05:08:13;;;;;;;36.67;13.77;;;;;;;;;;5070714;28;20036;-82
2023/11/22 05:10:38;;;;;;;41.08;13.35;;;;;;;;;;5056499;28;20135;-81
2023/11/22 05:13:05;;;;;;;39.10;14.48;;;;;;;;;;5072144;28;20016;-81
2023/11/22 05:15:30;;;;;;;36.45;13.60;;;;;;;;;;5057362;28;20102;-81
2023/11/22 05:17:55;;;;;;;40.67;13.85;;;;;;;;;;5051891;28;20049;-81
2023/11/22 05:20:21;;;;;;;30.02;10.98;;;;;;;;;;5049669;28;20045;-81
2023/11/22 05:22:46;;;;;;;42.45;14.90;;;;;;;;;;5053478;28;20464;-80
2023/11/22 05:25:11;;;;;;;38.40;13.52;;;;;;;;;;5061010;28;20039;-80
2023/11/22 05:27:37;;;;;;;32.28;12.73;;;;;;;;;;5070534;28;20024;-81
2023/11/22 05:30:04;;;;;;;43.92;14.27;;;;;;;;;;5067643;28;20024;-81
2023/11/22 05:32:31;;;;;;;35.15;12.75;;;;;;;;;;5072005;28;20103;-81
2023/11/22 05:34:56;;;;;;;35.58;12.05;;;;;;;;;;5056214;28;20033;-80
2023/11/22 05:37:21;;;;;;;33.95;12.63;;;;;;;;;;5070501;28;20035;-81
2023/11/22 05:39:46;;;;;;;34.40;12.73;;;;;;;;;;5069929;28;20040;-81
2023/11/22 05:42:12;;;;;;;38.30;13.27;;;;;;;;;;5069600;28;20009;-81
2023/11/22 05:44:37;;;;;;;32.88;12.50;;;;;;;;;;5065356;28;20441;-81
2023/11/22 05:47:02;;;;;;;35.50;14.38;;;;;;;;;;5074276;28;20177;-80
2023/11/22 05:49:28;;;;;;;31.83;13.55;;;;;;;;;;5068451;28;20028;-81
2023/11/22 05:51:53;;;;;;;37.45;12.32;;;;;;;;;;5069492;28;20162;-81
2023/11/22 05:54:18;;;;;;;45.15;14.35;;;;;;;;;;5054088;28;20021;-81
2023/11/22 05:56:44;;;;;;;37.83;14.43;;;;;;;;;;5054172;28;20056;-81
2023/11/22 05:59:09;;;;;;;38.35;14.55;;;;;;;;;;5072251;28;20062;-80
2023/11/22 06:01:34;;;;;;;47.30;16.63;;;;;;;;;;5064571;28;20020;-81
2023/11/22 06:03:59;;;;;;;45.43;15.33;;;;;;;;;;5073987;28;20026;-80
2023/11/22 06:06:25;;;;;;;47.63;15.07;;;;;;;;;;5067062;28;20017;-80
2023/11/22 06:08:50;;;;;;;44.15;15.32;;;;;;;;;;5058062;28;20029;-80
2023/11/22 06:11:15;;;;;;;36.22;14.70;;;;;;;;;;5073906;28;20024;-81
2023/11/22 06:13:43;;;;;;;34.85;13.95;;;;;;;;;;5073821;28;20363;-81
2023/11/22 06:16:09;;;;;;;36.85;14.95;;;;;;;;;;5059092;28;20027;-80
2023/11/22 06:18:39;;;;;;;26.80;11.50;;;;;;;;;;5073624;28;20024;-82
2023/11/22 06:21:05;;;;;;;30.42;12.82;;;;;;;;;;5063595;28;20017;-81
2023/11/22 06:23:30;;;;;;;27.30;10.98;;;;;;;;;;5064518;28;20494;-81
2023/11/22 06:25:56;;;;;;;26.48;11.27;;;;;;;;;;5054333;28;20036;-80
2023/11/22 06:28:22;;;;;;;27.05;10.98;;;;;;;;;;5070621;28;20362;-80
2023/11/22 06:30:47;;;;;;;25.02;10.75;;;;;;;;;;5062778;28;20376;-80
2023/11/22 06:33:13;;;;;;;29.75;11.65;;;;;;;;;;5073302;28;20032;-80
2023/11/22 06:35:38;;;;;;;24.67;10.40;;;;;;;;;;5069718;28;20121;-80
2023/11/22 06:38:04;;;;;;;27.80;12.23;;;;;;;;;;5060167;28;20025;-81
2023/11/22 06:40:29;;;;;;;28.80;11.60;;;;;;;;;;5063935;28;20388;-80
2023/11/22 06:42:55;;;;;;;26.73;11.80;;;;;;;;;;5073225;28;20008;-80
2023/11/22 06:45:21;;;;;;;29.38;11.73;;;;;;;;;;5066744;28;20400;-80
2023/11/22 06:47:46;;;;;;;27.23;11.50;;;;;;;;;;5068960;28;20024;-81
2023/11/22 06:50:12;;;;;;;24.63;10.32;;;;;;;;;;5058808;28;20027;-80
2023/11/22 06:52:40;;;;;;;25.38;10.93;;;;;;;;;;5073046;28;20043;-81
2023/11/22 06:55:07;;;;;;;25.65;10.27;;;;;;;;;;5066105;28;20017;-81
2023/11/22 06:57:33;;;;;;;24.13;11.05;;;;;;;;;;5066944;28;20122;-80
2023/11/22 06:59:58;;;;;;;25.17;10.70;;;;;;;;;;5056152;28;20020;-81
2023/11/22 07:02:24;;;;;;;26.13;10.50;;;;;;;;;;5070078;28;20108;-81
2023/11/22 07:04:49;;;;;;;22.83;10.40;;;;;;;;;;5064380;28;20467;-81
2023/11/22 07:07:14;;;;;;;29.75;11.02;;;;;;;;;;5052475;28;20021;-80
2023/11/22 07:09:43;;;;;;;21.33;10.07;;;;;;;;;;5052120;28;20445;-81
2023/11/22 07:12:10;;;;;;;23.10;10.40;;;;;;;;;;5052261;28;20086;-81
2023/11/22 07:14:35;;;;;;;23.63;9.73;;;;;;;;;;5053247;28;20020;-81
2023/11/22 07:17:01;;;;;;;20.87;9.83;;;;;;;;;;5064310;28;20419;-81
2023/11/22 07:19:26;;;;;;;29.57;11.17;;;;;;;;;;5055810;28;20050;-82
2023/11/22 07:21:51;;;;;;;33.45;13.52;;;;;;;;;;5052999;28;20021;-81
2023/11/22 07:24:18;;;;;;;37.78;14.45;;;;;;;;;;5067812;28;20062;-82
2023/11/22 07:26:43;;;;;;;41.13;16.08;;;;;;;;;;5064994;28;20334;-82
2023/11/22 07:29:09;;;;;;;41.75;15.82;;;;;;;;;;5056133;28;20025;-82
2023/11/22 07:31:35;;;;;;;41.30;16.40;;;;;;;;;;5067717;28;20017;-81
2023/11/22 07:34:01;;;;;;;36.72;15.15;;;;;;;;;;5052369;28;20021;-81
2023/11/22 07:36:30;;;;;;;36.67;15.50;;;;;;;;;;5051681;28;20032;-81
2023/11/22 07:38:55;;;;;;;39.13;14.83;;;;;;;;;;5049073;28;20406;-81
2023/11/22 07:41:21;;;;;;;46.88;14.95;;;;;;;;;;5052884;28;20071;-81
2023/11/22 07:43:46;;;;;;;46.95;16.90;;;;;;;;;;5055600;28;20096;-80
2023/11/22 07:46:16;;;;;;;42.03;15.75;;;;;;;;;;5051655;28;20082;-81
2023/11/22 07:48:42;;;;;;;41.97;16.23;;;;;;;;;;5083796;28;20120;-81
2023/11/22 07:51:08;;;;;;;39.30;15.98;;;;;;;;;;5051405;28;20373;-81
2023/11/22 07:53:36;;;;;;;41.85;15.57;;;;;;;;;;5057710;28;20063;-80
2023/11/22 07:56:04;;;;;;;41.27;15.97;;;;;;;;;;5068860;28;20013;-80
2023/11/22 07:58:32;;;;;;;40.00;15.77;;;;;;;;;;5051300;28;20025;-81
2023/11/22 08:01:05;;;;;;;39.78;15.98;;;;;;;;;;5052936;28;20025;-80
2023/11/22 08:03:30;;;;;;;40.97;15.03;;;;;;;;;;5055288;28;20031;-82
2023/11/22 08:05:55;;;;;;;42.67;17.02;;;;;;;;;;5071406;28;20142;-81
2023/11/22 08:08:25;;;;;;;43.30;16.47;;;;;;;;;;5052253;28;20019;-81
2023/11/22 08:10:53;;;;;;;45.17;16.60;;;;;;;;;;5069440;28;20012;-81
2023/11/22 08:13:19;;;;;;;46.85;16.90;;;;;;;;;;5063701;28;20032;-81
2023/11/22 08:15:46;;;;;;;46.78;17.35;;;;;;;;;;5063810;28;20025;-81
2023/11/22 08:18:11;;;;;;;46.53;17.23;;;;;;;;;;5055669;28;20311;-81
2023/11/22 08:20:37;;;;;;;49.07;17.33;;;;;;;;;;5051277;28;20078;-81
2023/11/22 08:23:03;;;;;;;64.53;21.60;;;;;;;;;;5065261;28;20021;-81
2023/11/22 08:25:29;;;;;;;53.97;19.07;;;;;;;;;;5056635;28;20163;-81
2023/11/22 08:27:54;;;;;;;56.63;20.90;;;;;;;;;;5056764;28;20052;-80
2023/11/22 08:30:19;;;;;;;62.40;21.83;;;;;;;;;;5053109;28;20534;-81
2023/11/22 08:32:51;;;;;;;51.40;19.03;;;;;;;;;;5051231;28;20167;-81
2023/11/22 08:35:17;;;;;;;48.07;18.73;;;;;;;;;;5054841;28;20021;-82
2023/11/22 08:37:42;;;;;;;59.70;21.30;;;;;;;;;;5052758;28;20052;-81
2023/11/22 08:40:11;;;;;;;52.17;18.73;;;;;;;;;;5053297;28;20017;-81
2023/11/22 08:42:36;;;;;;;48.93;18.93;;;;;;;;;;5058936;28;20016;-82
2023/11/22 08:45:03;;;;;;;61.47;20.23;;;;;;;;;;5050373;28;20013;-81
2023/11/22 08:47:28;;;;;;;61.88;21.90;;;;;;;;;;5060990;28;20467;-81
2023/11/22 08:49:53;;;;;;;63.97;20.50;;;;;;;;;;5058957;28;20124;-82
2023/11/22 08:52:19;;;;;;;59.93;20.97;;;;;;;;;;5049878;28;20036;-82
2023/11/22 08:54:45;;;;;;;47.53;18.37;;;;;;;;;;5055744;28;20041;-81
2023/11/22 08:57:10;;;;;;;52.97;18.47;;;;;;;;;;5055222;28;20408;-81
2023/11/22 08:59:38;;;;;;;49.03;18.97;;;;;;;;;;5065008;28;20021;-81
2023/11/22 09:02:03;;;;;;;37.45;15.52;;;;;;;;;;5053418;28;20048;-82
2023/11/22 09:04:31;;;;;;;41.92;16.42;;;;;;;;;;5070768;28;20020;-82
2023/11/22 09:06:56;;;;;;;43.05;16.42;;;;;;;;;;5070847;28;20021;-80
2023/11/22 09:09:27;;;;;;;39.55;15.45;;;;;;;;;;5072262;28;20020;-81
2023/11/22 09:11:52;;;;;;;41.67;15.63;;;;;;;;;;5062586;28;20021;-81
2023/11/22 09:14:19;;;;;;;37.50;14.33;;;;;;;;;;5057514;28;20490;-81
2023/11/22 09:16:44;;;;;;;35.90;14.05;;;;;;;;;;5066107;28;20032;-81
2023/11/22 09:19:09;;;;;;;38.75;14.18;;;;;;;;;;5071323;28;20305;-81
2023/11/22 09:21:35;;;;;;;38.47;14.70;;;;;;;;;;5058394;28;20043;-81
2023/11/22 09:24:00;;;;;;;39.63;13.82;;;;;;;;;;5062721;28;20498;-81
2023/11/22 09:26:25;;;;;;;43.25;16.58;;;;;;;;;;5061956;28;20016;-81
2023/11/22 09:28:50;;;;;;;37.95;16.02;;;;;;;;;;5075867;28;20435;-81
2023/11/22 09:31:20;;;;;;;39.65;14.50;;;;;;;;;;5065330;28;20033;-81
2023/11/22 09:33:45;;;;;;;38.42;14.45;;;;;;;;;;5054446;28;20059;-81
2023/11/22 09:36:10;;;;;;;41.92;15.35;;;;;;;;;;5054270;28;20136;-81
2023/11/22 09:38:37;;;;;;;30.65;11.55;;;;;;;;;;5054102;28;20020;-81
2023/11/22 09:41:02;;;;;;;44.72;15.95;;;;;;;;;;5055652;28;20345;-80
2023/11/22 09:43:28;;;;;;;39.00;16.27;;;;;;;;;;5096506;28;20021;-81
2023/11/22 09:45:55;;;;;;;40.08;15.35;;;;;;;;;;5071159;28;20025;-81
2023/11/22 09:48:22;;;;;;;36.90;15.55;;;;;;;;;;5060874;28;20028;-81
2023/11/22 09:50:57;;;;;;;38.28;16.38;;;;;;;;;;5059714;28;20158;-81
2023/11/22 09:53:25;;;;;;;41.33;16.08;;;;;;;;;;5060627;28;20028;-81
2023/11/22 09:55:50;;;;;;;39.55;15.38;;;;;;;;;;5050883;28;20025;-81
2023/11/22 09:58:16;;;;;;;39.60;16.02;;;;;;;;;;5052384;28;20376;-81
2023/11/22 10:00:42;;;;;;;46.58;17.83;;;;;;;;;;5056992;28;20027;-81
2023/11/22 10:03:07;;;;;;;50.55;16.67;;;;;;;;;;5073777;28;20464;-81
2023/11/22 10:05:33;;;;;;;49.50;17.35;;;;;;;;;;5073597;28;20020;-81
2023/11/22 10:07:59;;;;;;;40.35;14.75;;;;;;;;;;5061707;28;20020;-80
2023/11/22 10:10:26;;;;;;;35.55;14.38;;;;;;;;;;5052826;28;20021;-82
2023/11/22 10:12:55;;;;;;;41.50;14.95;;;;;;;;;;5052714;28;20060;-81
2023/11/22 10:15:22;;;;;;;33.35;13.30;;;;;;;;;;5062863;28;20057;-81
2023/11/22 10:17:53;;;;;;;35.08;14.68;;;;;;;;;;5067159;28;20024;-81
2023/11/22 10:20:18;;;;;;;29.83;12.20;;;;;;;;;;5054810;28;20025;-81
2023/11/22 10:22:45;;;;;;;25.42;10.07;;;;;;;;;;5053315;28;20037;-83
2023/11/22 10:25:10;;;;;;;29.92;11.40;;;;;;;;;;5052653;28;20075;-81
2023/11/22 10:27:37;;;;;;;31.67;11.68;;;;;;;;;;5054955;28;20013;-81
2023/11/22 10:30:03;;;;;;;22.77;8.93;;;;;;;;;;5062224;28;20031;-81
2023/11/22 10:32:28;;;;;;;23.58;10.40;;;;;;;;;;5055856;28;20013;-81
2023/11/22 10:34:53;;;;;;;24.50;10.82;;;;;;;;;;5063567;28;20025;-82
2023/11/22 10:37:19;;;;;;;23.45;10.50;;;;;;;;;;5064954;28;20115;-81
2023/11/22 10:39:50;;;;;;;26.38;10.82;;;;;;;;;;5056579;28;20052;-81
2023/11/22 10:42:15;;;;;;;30.23;12.20;;;;;;;;;;5106647;28;20032;-81
2023/11/22 10:44:41;;;;;;;28.95;12.13;;;;;;;;;;5061268;28;20017;-81
2023/11/22 10:47:06;;;;;;;24.45;11.55;;;;;;;;;;5070703;28;20044;-81
2023/11/22 10:49:31;;;;;;;26.20;11.15;;;;;;;;;;5063533;28;20027;-81
2023/11/22 10:51:57;;;;;;;28.83;12.73;;;;;;;;;;5066979;28;20108;-81
2023/11/22 10:54:24;;;;;;;29.92;12.35;;;;;;;;;;5056355;28;20017;-81
2023/11/22 10:56:54;;;;;;;27.60;12.10;;;;;;;;;;5052803;28;20028;-81
2023/11/22 10:59:22;;;;;;;30.15;12.00;;;;;;;;;;5052032;28;20020;-81
2023/11/22 11:01:52;;;;;;;23.70;10.90;;;;;;;;;;5066625;28;20012;-81
2023/11/22 11:04:24;;;;;;;30.42;14.35;;;;;;;;;;5053042;28;20075;-81
2023/11/22 11:06:51;;;;;;;33.35;14.90;;;;;;;;;;5051876;28;20029;-80
2023/11/22 11:09:21;;;;;;;31.77;14.55;;;;;;;;;;5070748;28;20017;-80
2023/11/22 11:11:46;;;;;;;38.55;14.20;;;;;;;;;;5072547;28;20047;-81
2023/11/22 11:14:13;;;;;;;32.63;14.00;;;;;;;;;;5058326;28;20488;-81
2023/11/22 11:16:41;;;;;;;30.95;13.57;;;;;;;;;;5055558;28;20024;-80
2023/11/22 11:19:07;;;;;;;35.50;14.90;;;;;;;;;;5062669;28;20372;-80
2023/11/22 11:21:33;;;;;;;30.67;13.20;;;;;;;;;;5054097;28;20078;-81
2023/11/22 11:24:02;;;;;;;31.23;15.55;;;;;;;;;;5052763;28;20362;-80
2023/11/22 11:26:28;;;;;;;32.83;13.93;;;;;;;;;;5067795;28;20021;-79
2023/11/22 11:28:54;;;;;;;27.90;12.70;;;;;;;;;;5052550;28;20484;-81
2023/11/22 11:31:22;;;;;;;27.48;12.07;;;;;;;;;;5056677;28;20019;-80
2023/11/22 11:33:47;;;;;;;30.05;12.00;;;;;;;;;;5069682;28;20033;-81
2023/11/22 11:36:20;;;;;;;28.40;11.87;;;;;;;;;;5063624;28;20027;-81
2023/11/22 11:38:49;;;;;;;28.55;11.80;;;;;;;;;;5055667;28;20531;-81
2023/11/22 11:41:14;;;;;;;24.95;9.27;;;;;;;;;;5068283;28;20020;-81
2023/11/22 11:43:45;;;;;;;22.38;9.60;;;;;;;;;;5102185;28;20009;-81
2023/11/22 11:46:11;;;;;;;27.35;11.80;;;;;;;;;;5062001;28;20070;-81
2023/11/22 11:48:36;;;;;;;23.17;10.88;;;;;;;;;;5053316;28;20116;-81
2023/11/22 11:51:01;;;;;;;30.35;13.30;;;;;;;;;;5063947;28;20173;-81
2023/11/22 11:53:27;;;;;;;32.28;14.80;;;;;;;;;;5065610;28;20028;-80
2023/11/22 11:55:53;;;;;;;34.70;13.45;;;;;;;;;;5067922;28;20035;-81
2023/11/22 11:58:19;;;;;;;30.65;12.70;;;;;;;;;;5052514;28;20481;-80
2023/11/22 12:00:44;;;;;;;35.60;14.57;;;;;;;;;;5055311;28;20111;-81
2023/11/22 12:03:09;;;;;;;33.78;12.88;;;;;;;;;;5053193;28;20071;-80
2023/11/22 12:05:35;;;;;;;32.15;13.27;;;;;;;;;;5065650;28;20042;-81
2023/11/22 12:08:00;;;;;;;26.05;11.82;;;;;;;;;;5052896;28;20013;-81
2023/11/22 12:10:25;;;;;;;26.20;10.88;;;;;;;;;;5061144;28;20475;-81
2023/11/22 12:12:51;;;;;;;29.08;12.20;;;;;;;;;;5051315;28;20059;-81
2023/11/22 12:15:17;;;;;;;25.80;10.52;;;;;;;;;;5064079;28;20124;-81
2023/11/22 12:17:42;;;;;;;33.13;14.32;;;;;;;;;;5051796;28;20029;-80
2023/11/22 12:20:08;;;;;;;30.58;14.18;;;;;;;;;;5055196;28;20023;-80
2023/11/22 12:22:34;;;;;;;28.02;13.32;;;;;;;;;;5052663;28;20029;-80
2023/11/22 12:24:59;;;;;;;32.83;14.38;;;;;;;;;;5072739;28;20016;-81
2023/11/22 12:27:24;;;;;;;32.83;14.85;;;;;;;;;;5061332;28;20029;-80
2023/11/22 12:29:50;;;;;;;36.67;14.80;;;;;;;;;;5064309;28;20082;-80
2023/11/22 12:32:17;;;;;;;31.85;14.13;;;;;;;;;;5055834;28;20020;-80
2023/11/22 12:34:43;;;;;;;35.17;14.82;;;;;;;;;;5051753;28;20036;-81
2023/11/22 12:37:08;;;;;;;29.13;13.90;;;;;;;;;;5050839;28;20021;-81
2023/11/22 12:39:36;;;;;;;30.63;14.73;;;;;;;;;;5050552;28;20482;-80
2023/11/22 12:42:02;;;;;;;35.63;14.00;;;;;;;;;;5054592;28;20488;-80
2023/11/22 12:44:28;;;;;;;30.88;13.57;;;;;;;;;;5052961;28;20021;-80
2023/11/22 12:46:56;;;;;;;26.98;11.63;;;;;;;;;;5050542;28;20086;-80
2023/11/22 12:49:22;;;;;;;30.33;13.85;;;;;;;;;;5049778;28;20112;-80
2023/11/22 12:51:52;;;;;;;27.83;13.65;;;;;;;;;;5047250;28;20508;-81
2023/11/22 12:54:19;;;;;;;27.77;12.48;;;;;;;;;;5050553;28;20379;-80
2023/11/22 12:56:45;;;;;;;25.20;10.63;;;;;;;;;;5049772;28;20043;-80
2023/11/22 12:59:10;;;;;;;26.75;11.93;;;;;;;;;;5050280;28;20104;-80
2023/11/22 13:01:35;;;;;;;28.05;12.20;;;;;;;;;;5051789;28;20013;-80
2023/11/22 13:04:01;;;;;;;26.77;12.00;;;;;;;;;;5050256;28;20021;-80
2023/11/22 13:06:26;;;;;;;28.50;12.95;;;;;;;;;;5053236;28;20460;-80
2023/11/22 13:08:51;;;;;;;28.27;12.47;;;;;;;;;;5052962;28;20021;-80
2023/11/22 13:11:18;;;;;;;31.07;13.30;;;;;;;;;;5065356;28;20529;-80
2023/11/22 13:13:44;;;;;;;27.55;12.50;;;;;;;;;;5069418;28;20025;-80
2023/11/22 13:16:09;;;;;;;30.73;12.13;;;;;;;;;;5051800;28;20017;-80
2023/11/22 13:18:37;;;;;;;33.10;12.27;;;;;;;;;;5055545;28;20028;-81
2023/11/22 13:21:02;;;;;;;28.47;12.97;;;;;;;;;;5058736;28;20499;-80
2023/11/22 13:23:27;;;;;;;28.27;13.67;;;;;;;;;;5060400;28;20025;-80
2023/11/22 13:25:53;;;;;;;31.10;12.87;;;;;;;;;;5058483;28;20094;-80
2023/11/22 13:28:18;;;;;;;25.70;11.57;;;;;;;;;;5063830;28;20041;-79
2023/11/22 13:30:43;;;;;;;26.08;12.55;;;;;;;;;;5048638;28;20112;-80
2023/11/22 13:33:08;;;;;;;24.75;11.23;;;;;;;;;;5050482;28;20049;-80
2023/11/22 13:35:37;;;;;;;19.88;8.32;;;;;;;;;;5058228;28;20539;-81
2023/11/22 13:38:06;;;;;;;29.38;12.30;;;;;;;;;;5070373;28;20067;-81
2023/11/22 13:40:33;;;;;;;30.38;14.35;;;;;;;;;;5066599;28;20431;-80
2023/11/22 13:42:58;;;;;;;23.63;11.57;;;;;;;;;;5051889;28;20104;-80
2023/11/22 13:45:23;;;;;;;27.05;12.63;;;;;;;;;;5049751;28;20352;-80
2023/11/22 13:47:50;;;;;;;25.58;10.90;;;;;;;;;;5053118;28;20021;-80
2023/11/22 13:50:21;;;;;;;23.40;9.57;;;;;;;;;;5055995;28;20368;-80
2023/11/22 13:52:48;;;;;;;23.67;10.57;;;;;;;;;;5070379;28;20028;-80
2023/11/22 13:55:13;;;;;;;26.23;12.57;;;;;;;;;;5056551;28;20309;-80
2023/11/22 13:57:38;;;;;;;22.55;11.00;;;;;;;;;;5061262;28;20024;-80
2023/11/22 14:00:18;;;;;;;25.60;11.73;;;;;;;;;;5059539;28;20055;-80
2023/11/22 14:02:43;;;;;;;24.43;11.43;;;;;;;;;;5046059;28;20012;-80
2023/11/22 14:05:08;;;;;;;25.75;11.73;;;;;;;;;;5064441;28;20066;-80
2023/11/22 14:07:34;;;;;;;24.00;11.02;;;;;;;;;;5057297;28;20120;-81
2023/11/22 14:10:00;;;;;;;23.77;11.55;;;;;;;;;;5063891;28;20017;-80
2023/11/22 14:12:25;;;;;;;27.48;12.10;;;;;;;;;;5069566;28;20023;-80
2023/11/22 14:14:51;;;;;;;24.58;11.80;;;;;;;;;;5065298;28;20149;-81